sensor_id;sensor_type;location;lat;lon;timestamp;temperature;humidity
55016;DHT22;40919;43.236;21.590;2023-04-03T00:00:29;256.80;2252.80
55016;DHT22;40919;43.236;21.590;2023-04-03T00:02:55;256.80;2252.80
55016;DHT22;40919;43.236;21.590;2023-04-03T00:05:21;256.80;2252.80
55016;DHT22;40919;43.236;21.590;2023-04-03T00:07:47;256.90;2252.80
55016;DHT22;40919;43.236;21.590;2023-04-03T00:10:13;256.80;2252.80
55016;DHT22;40919;43.236;21.590;2023-04-03T00:12:39;256.70;2252.80
55016;DHT22;40919;43.236;21.590;2023-04-03T00:15:05;256.60;2252.80
55016;DHT22;40919;43.236;21.590;2023-04-03T00:17:31;256.60;2252.80
55016;DHT22;40919;43.236;21.590;2023-04-03T00:19:56;256.40;2252.80
55016;DHT22;40919;43.236;21.590;2023-04-03T00:22:22;231.30;2252.80
55016;DHT22;40919;43.236;21.590;2023-04-03T00:24:48;256.00;2252.80
55016;DHT22;40919;43.236;21.590;2023-04-03T00:27:14;256.00;2252.80
55016;DHT22;40919;43.236;21.590;2023-04-03T00:29:41;256.10;2252.80
55016;DHT22;40919;43.236;21.590;2023-04-03T00:32:06;256.40;2252.80
55016;DHT22;40919;43.236;21.590;2023-04-03T00:34:32;256.50;2252.80
55016;DHT22;40919;43.236;21.590;2023-04-03T00:36:58;256.30;2252.80
55016;DHT22;40919;43.236;21.590;2023-04-03T00:39:24;256.20;2252.80
55016;DHT22;40919;43.236;21.590;2023-04-03T00:41:49;256.20;2252.80
55016;DHT22;40919;43.236;21.590;2023-04-03T00:44:20;256.40;2252.80
55016;DHT22;40919;43.236;21.590;2023-04-03T00:46:46;256.40;2252.80
55016;DHT22;40919;43.236;21.590;2023-04-03T00:49:12;256.40;2252.80
55016;DHT22;40919;43.236;21.590;2023-04-03T00:51:38;256.30;2252.80
55016;DHT22;40919;43.236;21.590;2023-04-03T00:54:05;256.00;2252.80
55016;DHT22;40919;43.236;21.590;2023-04-03T00:56:32;256.10;2252.80
55016;DHT22;40919;43.236;21.590;2023-04-03T01:02:01;230.90;2252.80
55016;DHT22;40919;43.236;21.590;2023-04-03T01:04:30;231.00;2252.80
55016;DHT22;40919;43.236;21.590;2023-04-03T01:07:00;231.10;2252.80
55016;DHT22;40919;43.236;21.590;2023-04-03T01:09:28;231.00;2252.80
55016;DHT22;40919;43.236;21.590;2023-04-03T01:11:54;231.10;2252.80
55016;DHT22;40919;43.236;21.590;2023-04-03T01:14:37;231.20;2252.80
55016;DHT22;40919;43.236;21.590;2023-04-03T01:17:03;231.10;2252.80
55016;DHT22;40919;43.236;21.590;2023-04-03T01:19:29;231.20;2252.80
55016;DHT22;40919;43.236;21.590;2023-04-03T01:22:14;231.20;2252.80
55016;DHT22;40919;43.236;21.590;2023-04-03T01:24:42;230.90;2252.80
55016;DHT22;40919;43.236;21.590;2023-04-03T01:27:10;230.90;2252.80
55016;DHT22;40919;43.236;21.590;2023-04-03T01:29:36;231.00;2252.80
55016;DHT22;40919;43.236;21.590;2023-04-03T01:32:03;231.00;2252.80
55016;DHT22;40919;43.236;21.590;2023-04-03T01:34:29;231.10;2252.80
55016;DHT22;40919;43.236;21.590;2023-04-03T01:36:55;230.90;2252.80
55016;DHT22;40919;43.236;21.590;2023-04-03T01:39:21;230.90;2252.80
55016;DHT22;40919;43.236;21.590;2023-04-03T01:41:47;230.90;2252.80
55016;DHT22;40919;43.236;21.590;2023-04-03T01:44:13;231.00;2252.80
55016;DHT22;40919;43.236;21.590;2023-04-03T01:46:39;231.00;2252.80
55016;DHT22;40919;43.236;21.590;2023-04-03T01:49:06;231.10;2252.80
55016;DHT22;40919;43.236;21.590;2023-04-03T01:51:32;231.20;2252.80
55016;DHT22;40919;43.236;21.590;2023-04-03T01:53:58;231.00;2252.80
55016;DHT22;40919;43.236;21.590;2023-04-03T01:56:24;231.00;2252.80
55016;DHT22;40919;43.236;21.590;2023-04-03T01:58:50;231.10;2252.80
55016;DHT22;40919;43.236;21.590;2023-04-03T02:01:16;231.10;2252.80
55016;DHT22;40919;43.236;21.590;2023-04-03T02:03:42;231.00;2252.80
55016;DHT22;40919;43.236;21.590;2023-04-03T02:06:08;231.10;2252.80
55016;DHT22;40919;43.236;21.590;2023-04-03T02:08:33;230.70;2252.80
55016;DHT22;40919;43.236;21.590;2023-04-03T02:10:59;230.90;2252.80
55016;DHT22;40919;43.236;21.590;2023-04-03T02:13:25;231.00;2252.80
55016;DHT22;40919;43.236;21.590;2023-04-03T02:15:51;230.90;2252.80
55016;DHT22;40919;43.236;21.590;2023-04-03T02:18:17;230.70;2252.80
55016;DHT22;40919;43.236;21.590;2023-04-03T02:20:43;230.40;2252.80
55016;DHT22;40919;43.236;21.590;2023-04-03T02:23:09;230.60;2252.80
55016;DHT22;40919;43.236;21.590;2023-04-03T02:25:35;230.60;2252.80
55016;DHT22;40919;43.236;21.590;2023-04-03T02:28:01;230.40;2252.80
55016;DHT22;40919;43.236;21.590;2023-04-03T02:30:27;230.40;2252.80
55016;DHT22;40919;43.236;21.590;2023-04-03T02:32:53;230.40;2252.80
55016;DHT22;40919;43.236;21.590;2023-04-03T02:35:18;205.50;2252.80
55016;DHT22;40919;43.236;21.590;2023-04-03T02:37:44;205.30;2252.80
55016;DHT22;40919;43.236;21.590;2023-04-03T02:40:10;205.50;2252.80
55016;DHT22;40919;43.236;21.590;2023-04-03T02:42:37;205.60;2252.80
55016;DHT22;40919;43.236;21.590;2023-04-03T02:45:03;205.60;2252.80
55016;DHT22;40919;43.236;21.590;2023-04-03T02:47:28;205.70;2252.80
55016;DHT22;40919;43.236;21.590;2023-04-03T02:49:54;205.70;2252.80
55016;DHT22;40919;43.236;21.590;2023-04-03T02:52:21;205.70;2252.80
55016;DHT22;40919;43.236;21.590;2023-04-03T02:54:46;230.40;2252.80
55016;DHT22;40919;43.236;21.590;2023-04-03T02:57:12;230.40;2252.80
55016;DHT22;40919;43.236;21.590;2023-04-03T02:59:38;230.50;2252.80
55016;DHT22;40919;43.236;21.590;2023-04-03T03:02:10;230.60;2252.80
55016;DHT22;40919;43.236;21.590;2023-04-03T03:04:36;230.70;2252.80
55016;DHT22;40919;43.236;21.590;2023-04-03T03:07:02;230.70;2252.80
55016;DHT22;40919;43.236;21.590;2023-04-03T03:09:29;230.40;2252.80
55016;DHT22;40919;43.236;21.590;2023-04-03T03:11:55;230.50;2252.80
55016;DHT22;40919;43.236;21.590;2023-04-03T03:14:21;205.60;2252.80
55016;DHT22;40919;43.236;21.590;2023-04-03T03:16:47;205.60;2252.80
55016;DHT22;40919;43.236;21.590;2023-04-03T03:19:12;205.60;2252.80
55016;DHT22;40919;43.236;21.590;2023-04-03T03:21:38;205.50;2252.80
55016;DHT22;40919;43.236;21.590;2023-04-03T03:24:04;205.40;2252.80
55016;DHT22;40919;43.236;21.590;2023-04-03T03:26:30;205.40;2252.80
55016;DHT22;40919;43.236;21.590;2023-04-03T03:28:56;205.50;2252.80
55016;DHT22;40919;43.236;21.590;2023-04-03T03:31:21;205.70;2252.80
55016;DHT22;40919;43.236;21.590;2023-04-03T03:33:47;205.60;2252.80
55016;DHT22;40919;43.236;21.590;2023-04-03T03:36:13;205.70;2252.80
55016;DHT22;40919;43.236;21.590;2023-04-03T03:38:39;230.40;2252.80
55016;DHT22;40919;43.236;21.590;2023-04-03T03:41:04;230.40;2252.80
55016;DHT22;40919;43.236;21.590;2023-04-03T03:43:30;230.40;2252.80
55016;DHT22;40919;43.236;21.590;2023-04-03T03:45:56;230.40;2252.80
55016;DHT22;40919;43.236;21.590;2023-04-03T03:48:23;230.50;2252.80
55016;DHT22;40919;43.236;21.590;2023-04-03T03:50:49;230.50;2252.80
55016;DHT22;40919;43.236;21.590;2023-04-03T03:53:15;205.70;2252.80
55016;DHT22;40919;43.236;21.590;2023-04-03T03:55:41;205.70;2252.80
55016;DHT22;40919;43.236;21.590;2023-04-03T03:58:07;230.40;2252.80
55016;DHT22;40919;43.236;21.590;2023-04-03T04:00:33;205.60;2252.80
55016;DHT22;40919;43.236;21.590;2023-04-03T04:02:59;205.70;2252.80
55016;DHT22;40919;43.236;21.590;2023-04-03T04:05:24;205.70;2252.80
55016;DHT22;40919;43.236;21.590;2023-04-03T04:07:50;230.40;2252.80
55016;DHT22;40919;43.236;21.590;2023-04-03T04:10:16;205.60;2252.80
55016;DHT22;40919;43.236;21.590;2023-04-03T04:12:42;205.70;2252.80
55016;DHT22;40919;43.236;21.590;2023-04-03T04:15:08;205.50;2252.80
55016;DHT22;40919;43.236;21.590;2023-04-03T04:17:34;205.60;2252.80
55016;DHT22;40919;43.236;21.590;2023-04-03T04:20:01;205.60;2252.80
55016;DHT22;40919;43.236;21.590;2023-04-03T04:22:27;205.70;2252.80
55016;DHT22;40919;43.236;21.590;2023-04-03T04:24:53;205.70;2252.80
55016;DHT22;40919;43.236;21.590;2023-04-03T04:27:19;205.50;2252.80
55016;DHT22;40919;43.236;21.590;2023-04-03T04:29:45;205.50;2252.80
55016;DHT22;40919;43.236;21.590;2023-04-03T04:32:10;205.40;2252.80
55016;DHT22;40919;43.236;21.590;2023-04-03T04:34:36;205.00;2252.80
55016;DHT22;40919;43.236;21.590;2023-04-03T04:37:02;205.00;2252.80
55016;DHT22;40919;43.236;21.590;2023-04-03T04:39:28;180.10;2252.80
55016;DHT22;40919;43.236;21.590;2023-04-03T04:41:54;204.90;2252.80
55016;DHT22;40919;43.236;21.590;2023-04-03T04:44:20;204.90;2252.80
55016;DHT22;40919;43.236;21.590;2023-04-03T04:46:45;205.10;2252.80
55016;DHT22;40919;43.236;21.590;2023-04-03T04:49:11;180.10;2252.80
55016;DHT22;40919;43.236;21.590;2023-04-03T04:51:37;180.10;2252.80
55016;DHT22;40919;43.236;21.590;2023-04-03T04:54:03;180.10;2252.80
55016;DHT22;40919;43.236;21.590;2023-04-03T04:56:29;204.90;2252.80
55016;DHT22;40919;43.236;21.590;2023-04-03T04:58:55;180.00;2252.80
55016;DHT22;40919;43.236;21.590;2023-04-03T05:01:21;180.10;2252.80
55016;DHT22;40919;43.236;21.590;2023-04-03T05:03:46;205.00;2252.80
55016;DHT22;40919;43.236;21.590;2023-04-03T05:06:13;205.20;2252.80
55016;DHT22;40919;43.236;21.590;2023-04-03T05:08:39;204.90;2252.80
55016;DHT22;40919;43.236;21.590;2023-04-03T05:11:05;204.80;2252.80
55016;DHT22;40919;43.236;21.590;2023-04-03T05:13:31;205.10;2252.80
55016;DHT22;40919;43.236;21.590;2023-04-03T05:15:56;205.20;2252.80
55016;DHT22;40919;43.236;21.590;2023-04-03T05:18:22;205.50;2252.80
55016;DHT22;40919;43.236;21.590;2023-04-03T05:20:49;205.50;2252.80
55016;DHT22;40919;43.236;21.590;2023-04-03T05:23:15;205.70;2252.80
55016;DHT22;40919;43.236;21.590;2023-04-03T05:25:41;205.70;2252.80
55016;DHT22;40919;43.236;21.590;2023-04-03T05:28:09;230.40;2252.80
55016;DHT22;40919;43.236;21.590;2023-04-03T05:30:35;230.50;2252.80
55016;DHT22;40919;43.236;21.590;2023-04-03T05:33:02;230.60;2252.80
55016;DHT22;40919;43.236;21.590;2023-04-03T05:35:27;230.60;2252.80
55016;DHT22;40919;43.236;21.590;2023-04-03T05:37:53;230.60;2252.80
55016;DHT22;40919;43.236;21.590;2023-04-03T05:40:20;230.60;2252.80
55016;DHT22;40919;43.236;21.590;2023-04-03T05:42:46;230.40;2252.80
55016;DHT22;40919;43.236;21.590;2023-04-03T05:45:11;230.50;2252.80
55016;DHT22;40919;43.236;21.590;2023-04-03T05:47:37;230.50;2252.80
55016;DHT22;40919;43.236;21.590;2023-04-03T05:50:03;230.60;2252.80
55016;DHT22;40919;43.236;21.590;2023-04-03T05:52:38;230.60;2252.80
55016;DHT22;40919;43.236;21.590;2023-04-03T05:55:06;230.50;2252.80
55016;DHT22;40919;43.236;21.590;2023-04-03T05:57:32;230.70;2252.80
55016;DHT22;40919;43.236;21.590;2023-04-03T05:59:57;230.80;2252.80
55016;DHT22;40919;43.236;21.590;2023-04-03T06:02:24;230.90;2252.80
55016;DHT22;40919;43.236;21.590;2023-04-03T06:04:50;230.90;2252.80
55016;DHT22;40919;43.236;21.590;2023-04-03T06:07:19;230.80;2252.80
55016;DHT22;40919;43.236;21.590;2023-04-03T06:09:46;230.90;2252.80
55016;DHT22;40919;43.236;21.590;2023-04-03T06:12:12;230.80;2252.80
55016;DHT22;40919;43.236;21.590;2023-04-03T06:14:38;230.90;2252.80
55016;DHT22;40919;43.236;21.590;2023-04-03T06:17:04;231.00;2252.80
55016;DHT22;40919;43.236;21.590;2023-04-03T06:19:31;231.10;2252.80
55016;DHT22;40919;43.236;21.590;2023-04-03T06:21:57;231.20;2252.80
55016;DHT22;40919;43.236;21.590;2023-04-03T06:24:23;231.20;2252.80
55016;DHT22;40919;43.236;21.590;2023-04-03T06:26:50;231.20;2252.80
55016;DHT22;40919;43.236;21.590;2023-04-03T06:29:21;231.10;2252.80
55016;DHT22;40919;43.236;21.590;2023-04-03T06:31:47;231.20;2252.80
55016;DHT22;40919;43.236;21.590;2023-04-03T06:34:13;231.20;2252.80
55016;DHT22;40919;43.236;21.590;2023-04-03T06:36:39;231.30;2252.80
55016;DHT22;40919;43.236;21.590;2023-04-03T06:39:05;231.20;2252.80
55016;DHT22;40919;43.236;21.590;2023-04-03T06:41:32;231.30;2252.80
55016;DHT22;40919;43.236;21.590;2023-04-03T06:43:58;256.00;2252.80
55016;DHT22;40919;43.236;21.590;2023-04-03T06:46:25;231.30;2252.80
55016;DHT22;40919;43.236;21.590;2023-04-03T06:48:52;231.30;2252.80
55016;DHT22;40919;43.236;21.590;2023-04-03T06:51:27;231.30;2252.80
55016;DHT22;40919;43.236;21.590;2023-04-03T06:53:54;231.30;2252.80
55016;DHT22;40919;43.236;21.590;2023-04-03T06:56:21;231.10;2252.80
55016;DHT22;40919;43.236;21.590;2023-04-03T06:58:48;231.00;2252.80
55016;DHT22;40919;43.236;21.590;2023-04-03T07:01:16;231.20;2252.80
55016;DHT22;40919;43.236;21.590;2023-04-03T07:03:43;231.30;2252.80
55016;DHT22;40919;43.236;21.590;2023-04-03T07:06:11;231.30;2252.80
55016;DHT22;40919;43.236;21.590;2023-04-03T07:08:37;231.30;2252.80
55016;DHT22;40919;43.236;21.590;2023-04-03T07:11:04;256.00;2252.80
55016;DHT22;40919;43.236;21.590;2023-04-03T07:13:30;231.30;2252.80
55016;DHT22;40919;43.236;21.590;2023-04-03T07:15:56;231.30;2252.80
55016;DHT22;40919;43.236;21.590;2023-04-03T07:18:22;231.30;2252.80
55016;DHT22;40919;43.236;21.590;2023-04-03T07:20:47;231.30;2252.80
55016;DHT22;40919;43.236;21.590;2023-04-03T07:23:13;231.10;2252.80
55016;DHT22;40919;43.236;21.590;2023-04-03T07:25:46;231.20;2252.80
55016;DHT22;40919;43.236;21.590;2023-04-03T07:28:13;231.30;2252.80
55016;DHT22;40919;43.236;21.590;2023-04-03T07:30:46;231.30;2252.80
55016;DHT22;40919;43.236;21.590;2023-04-03T07:33:13;256.10;2252.80
55016;DHT22;40919;43.236;21.590;2023-04-03T07:35:40;256.30;2252.80
55016;DHT22;40919;43.236;21.590;2023-04-03T07:38:06;256.20;2252.80
55016;DHT22;40919;43.236;21.590;2023-04-03T07:40:33;256.20;2252.80
55016;DHT22;40919;43.236;21.590;2023-04-03T07:42:59;231.30;2252.80
55016;DHT22;40919;43.236;21.590;2023-04-03T07:45:25;256.40;2252.80
55016;DHT22;40919;43.236;21.590;2023-04-03T07:47:51;256.50;2252.80
55016;DHT22;40919;43.236;21.590;2023-04-03T07:50:17;256.70;2252.80
55016;DHT22;40919;43.236;21.590;2023-04-03T07:52:44;256.80;2252.80
55016;DHT22;40919;43.236;21.590;2023-04-03T07:55:10;256.90;2252.80
55016;DHT22;40919;43.236;21.590;2023-04-03T07:57:36;281.70;2278.40
55016;DHT22;40919;43.236;21.590;2023-04-03T08:00:05;281.80;2278.40
55016;DHT22;40919;43.236;21.590;2023-04-03T08:02:31;281.80;2278.40
55016;DHT22;40919;43.236;21.590;2023-04-03T08:05:00;281.80;2278.40
55016;DHT22;40919;43.236;21.590;2023-04-03T08:07:26;281.90;2278.40
55016;DHT22;40919;43.236;21.590;2023-04-03T08:09:52;281.90;2278.40
55016;DHT22;40919;43.236;21.590;2023-04-03T08:12:18;281.90;2278.40
55016;DHT22;40919;43.236;21.590;2023-04-03T08:14:43;282.00;2278.40
55016;DHT22;40919;43.236;21.590;2023-04-03T08:17:09;282.00;2278.40
55016;DHT22;40919;43.236;21.590;2023-04-03T08:19:38;282.00;2278.40
55016;DHT22;40919;43.236;21.590;2023-04-03T08:22:04;282.20;2278.40
55016;DHT22;40919;43.236;21.590;2023-04-03T08:24:31;282.00;2278.40
55016;DHT22;40919;43.236;21.590;2023-04-03T08:26:57;282.00;2278.40
55016;DHT22;40919;43.236;21.590;2023-04-03T08:29:23;282.00;2278.40
55016;DHT22;40919;43.236;21.590;2023-04-03T08:31:52;282.20;2278.40
55016;DHT22;40919;43.236;21.590;2023-04-03T08:34:18;282.20;2278.40
55016;DHT22;40919;43.236;21.590;2023-04-03T08:36:44;282.20;2278.40
55016;DHT22;40919;43.236;21.590;2023-04-03T08:39:11;282.30;2278.40
55016;DHT22;40919;43.236;21.590;2023-04-03T08:41:41;282.40;2278.40
55016;DHT22;40919;43.236;21.590;2023-04-03T08:44:34;307.20;2304.00
55016;DHT22;40919;43.236;21.590;2023-04-03T08:47:38;307.30;2304.00
55016;DHT22;40919;43.236;21.590;2023-04-03T08:50:04;307.50;2304.00
55016;DHT22;40919;43.236;21.590;2023-04-03T08:52:35;307.60;2304.00
55016;DHT22;40919;43.236;21.590;2023-04-03T08:56:08;307.60;2304.00
55016;DHT22;40919;43.236;21.590;2023-04-03T08:58:04;307.50;2304.00
55016;DHT22;40919;43.236;21.590;2023-04-03T09:03:32;307.50;2304.00
55016;DHT22;40919;43.236;21.590;2023-04-03T09:06:05;307.60;2304.00
55016;DHT22;40919;43.236;21.590;2023-04-03T09:11:36;307.70;2304.00
55016;DHT22;40919;43.236;21.590;2023-04-03T09:14:45;307.80;2304.00
55016;DHT22;40919;43.236;21.590;2023-04-03T09:22:51;332.90;2329.60
55016;DHT22;40919;43.236;21.590;2023-04-03T09:25:33;332.90;2329.60
55016;DHT22;40919;43.236;21.590;2023-04-03T09:28:02;333.00;2329.60
55016;DHT22;40919;43.236;21.590;2023-04-03T09:30:28;333.20;2329.60
55016;DHT22;40919;43.236;21.590;2023-04-03T09:32:56;333.30;2329.60
55016;DHT22;40919;43.236;21.590;2023-04-03T09:35:26;333.40;2329.60
55016;DHT22;40919;43.236;21.590;2023-04-03T09:37:58;333.40;2329.60
55016;DHT22;40919;43.236;21.590;2023-04-03T09:42:52;333.30;2329.60
55016;DHT22;40919;43.236;21.590;2023-04-03T09:45:27;333.10;2329.60
55016;DHT22;40919;43.236;21.590;2023-04-03T09:51:02;332.90;2329.60
55016;DHT22;40919;43.236;21.590;2023-04-03T09:53:37;332.90;2329.60
55016;DHT22;40919;43.236;21.590;2023-04-03T09:56:25;332.90;2329.60
55016;DHT22;40919;43.236;21.590;2023-04-03T09:59:08;332.80;2329.60
55016;DHT22;40919;43.236;21.590;2023-04-03T10:01:42;308.10;2304.00
55016;DHT22;40919;43.236;21.590;2023-04-03T10:06:41;308.10;2304.00
55016;DHT22;40919;43.236;21.590;2023-04-03T10:17:49;307.90;2304.00
55016;DHT22;40919;43.236;21.590;2023-04-03T10:20:43;307.80;2304.00
55016;DHT22;40919;43.236;21.590;2023-04-03T10:23:21;307.70;2304.00
55016;DHT22;40919;43.236;21.590;2023-04-03T10:40:22;282.50;2278.40
55016;DHT22;40919;43.236;21.590;2023-04-03T10:48:29;282.40;2278.40
55016;DHT22;40919;43.236;21.590;2023-04-03T10:56:29;282.50;2278.40
55016;DHT22;40919;43.236;21.590;2023-04-03T10:59:28;282.50;2278.40
55016;DHT22;40919;43.236;21.590;2023-04-03T11:02:04;282.50;2278.40
55016;DHT22;40919;43.236;21.590;2023-04-03T11:04:35;282.40;2278.40
55016;DHT22;40919;43.236;21.590;2023-04-03T11:07:08;282.40;2278.40
55016;DHT22;40919;43.236;21.590;2023-04-03T11:09:39;282.40;2278.40
55016;DHT22;40919;43.236;21.590;2023-04-03T11:12:21;282.40;2278.40
55016;DHT22;40919;43.236;21.590;2023-04-03T11:14:50;282.40;2278.40
55016;DHT22;40919;43.236;21.590;2023-04-03T11:17:22;282.30;2278.40
55016;DHT22;40919;43.236;21.590;2023-04-03T11:20:04;282.30;2278.40
55016;DHT22;40919;43.236;21.590;2023-04-03T11:22:35;282.20;2278.40
55016;DHT22;40919;43.236;21.590;2023-04-03T11:27:57;282.20;2278.40
55016;DHT22;40919;43.236;21.590;2023-04-03T11:33:43;282.00;2278.40
55016;DHT22;40919;43.236;21.590;2023-04-03T11:36:30;282.00;2278.40
55016;DHT22;40919;43.236;21.590;2023-04-03T11:39:10;282.00;2278.40
55016;DHT22;40919;43.236;21.590;2023-04-03T11:41:41;282.00;2278.40
55016;DHT22;40919;43.236;21.590;2023-04-03T11:44:37;281.90;2278.40
55016;DHT22;40919;43.236;21.590;2023-04-03T11:47:05;281.90;2278.40
55016;DHT22;40919;43.236;21.590;2023-04-03T11:55:41;282.00;2278.40
55016;DHT22;40919;43.236;21.590;2023-04-03T12:05:49;281.80;2278.40
55016;DHT22;40919;43.236;21.590;2023-04-03T12:41:23;307.40;2304.00
55016;DHT22;40919;43.236;21.590;2023-04-03T12:44:26;307.30;2304.00
55016;DHT22;40919;43.236;21.590;2023-04-03T12:46:53;307.20;2304.00
55016;DHT22;40919;43.236;21.590;2023-04-03T12:51:58;307.30;2304.00
55016;DHT22;40919;43.236;21.590;2023-04-03T12:54:31;307.50;2304.00
55016;DHT22;40919;43.236;21.590;2023-04-03T12:59:36;307.20;2304.00
55016;DHT22;40919;43.236;21.590;2023-04-03T13:02:15;282.50;2278.40
55016;DHT22;40919;43.236;21.590;2023-04-03T13:04:43;307.20;2304.00
55016;DHT22;40919;43.236;21.590;2023-04-03T13:07:21;307.20;2304.00
55016;DHT22;40919;43.236;21.590;2023-04-03T13:10:03;307.20;2304.00
55016;DHT22;40919;43.236;21.590;2023-04-03T13:12:30;307.20;2304.00
55016;DHT22;40919;43.236;21.590;2023-04-03T13:14:59;282.50;2278.40
55016;DHT22;40919;43.236;21.590;2023-04-03T13:17:26;282.40;2278.40
55016;DHT22;40919;43.236;21.590;2023-04-03T13:19:53;282.30;2278.40
55016;DHT22;40919;43.236;21.590;2023-04-03T13:22:34;282.40;2278.40
55016;DHT22;40919;43.236;21.590;2023-04-03T13:25:07;282.30;2278.40
55016;DHT22;40919;43.236;21.590;2023-04-03T13:27:34;282.20;2278.40
55016;DHT22;40919;43.236;21.590;2023-04-03T13:30:03;282.20;2278.40
55016;DHT22;40919;43.236;21.590;2023-04-03T13:32:30;282.00;2278.40
55016;DHT22;40919;43.236;21.590;2023-04-03T13:34:56;281.90;2278.40
55016;DHT22;40919;43.236;21.590;2023-04-03T13:37:33;281.70;2278.40
55016;DHT22;40919;43.236;21.590;2023-04-03T13:40:18;281.80;2278.40
55016;DHT22;40919;43.236;21.590;2023-04-03T13:42:44;281.90;2278.40
55016;DHT22;40919;43.236;21.590;2023-04-03T13:45:23;281.80;2278.40
55016;DHT22;40919;43.236;21.590;2023-04-03T13:47:51;281.90;2278.40
55016;DHT22;40919;43.236;21.590;2023-04-03T13:50:21;281.80;2278.40
55016;DHT22;40919;43.236;21.590;2023-04-03T13:52:55;281.70;2278.40
55016;DHT22;40919;43.236;21.590;2023-04-03T13:55:31;281.70;2278.40
55016;DHT22;40919;43.236;21.590;2023-04-03T14:03:00;256.80;2252.80
55016;DHT22;40919;43.236;21.590;2023-04-03T14:05:26;256.80;2252.80
55016;DHT22;40919;43.236;21.590;2023-04-03T14:07:53;256.90;2252.80
55016;DHT22;40919;43.236;21.590;2023-04-03T14:10:20;256.90;2252.80
55016;DHT22;40919;43.236;21.590;2023-04-03T14:12:46;256.90;2252.80
55016;DHT22;40919;43.236;21.590;2023-04-03T14:15:20;256.90;2252.80
55016;DHT22;40919;43.236;21.590;2023-04-03T14:17:47;256.80;2252.80
55016;DHT22;40919;43.236;21.590;2023-04-03T14:20:17;256.60;2252.80
55016;DHT22;40919;43.236;21.590;2023-04-03T14:22:43;256.60;2252.80
55016;DHT22;40919;43.236;21.590;2023-04-03T14:25:10;256.70;2252.80
55016;DHT22;40919;43.236;21.590;2023-04-03T14:27:40;256.50;2252.80
55016;DHT22;40919;43.236;21.590;2023-04-03T14:30:11;256.60;2252.80
55016;DHT22;40919;43.236;21.590;2023-04-03T14:32:37;256.60;2252.80
55016;DHT22;40919;43.236;21.590;2023-04-03T14:35:04;256.40;2252.80
55016;DHT22;40919;43.236;21.590;2023-04-03T14:37:30;256.50;2252.80
55016;DHT22;40919;43.236;21.590;2023-04-03T14:39:58;256.70;2252.80
55016;DHT22;40919;43.236;21.590;2023-04-03T14:42:31;256.60;2252.80
55016;DHT22;40919;43.236;21.590;2023-04-03T14:44:58;256.60;2252.80
55016;DHT22;40919;43.236;21.590;2023-04-03T14:47:27;256.60;2252.80
55016;DHT22;40919;43.236;21.590;2023-04-03T14:49:54;256.40;2252.80
55016;DHT22;40919;43.236;21.590;2023-04-03T14:52:27;256.50;2252.80
55016;DHT22;40919;43.236;21.590;2023-04-03T14:54:54;256.50;2252.80
55016;DHT22;40919;43.236;21.590;2023-04-03T14:57:23;256.40;2252.80
55016;DHT22;40919;43.236;21.590;2023-04-03T14:59:49;256.30;2252.80
55016;DHT22;40919;43.236;21.590;2023-04-03T15:02:31;256.30;2252.80
55016;DHT22;40919;43.236;21.590;2023-04-03T15:04:58;256.20;2252.80
55016;DHT22;40919;43.236;21.590;2023-04-03T15:07:27;256.20;2252.80
55016;DHT22;40919;43.236;21.590;2023-04-03T15:09:53;256.10;2252.80
55016;DHT22;40919;43.236;21.590;2023-04-03T15:12:22;256.20;2252.80
55016;DHT22;40919;43.236;21.590;2023-04-03T15:14:48;256.00;2252.80
55016;DHT22;40919;43.236;21.590;2023-04-03T15:17:19;231.30;2252.80
55016;DHT22;40919;43.236;21.590;2023-04-03T15:19:46;231.10;2252.80
55016;DHT22;40919;43.236;21.590;2023-04-03T15:22:17;231.00;2252.80
55016;DHT22;40919;43.236;21.590;2023-04-03T15:24:43;230.80;2252.80
55016;DHT22;40919;43.236;21.590;2023-04-03T15:27:11;231.00;2252.80
55016;DHT22;40919;43.236;21.590;2023-04-03T15:29:39;231.10;2252.80
55016;DHT22;40919;43.236;21.590;2023-04-03T15:32:06;231.20;2252.80
55016;DHT22;40919;43.236;21.590;2023-04-03T15:34:31;231.20;2252.80
55016;DHT22;40919;43.236;21.590;2023-04-03T15:36:57;231.10;2252.80
55016;DHT22;40919;43.236;21.590;2023-04-03T15:39:25;231.10;2252.80
55016;DHT22;40919;43.236;21.590;2023-04-03T15:41:51;231.10;2252.80
55016;DHT22;40919;43.236;21.590;2023-04-03T15:44:18;231.00;2252.80
55016;DHT22;40919;43.236;21.590;2023-04-03T15:46:45;230.90;2252.80
55016;DHT22;40919;43.236;21.590;2023-04-03T15:49:12;230.90;2252.80
55016;DHT22;40919;43.236;21.590;2023-04-03T15:51:38;230.90;2252.80
55016;DHT22;40919;43.236;21.590;2023-04-03T15:54:04;230.90;2252.80
55016;DHT22;40919;43.236;21.590;2023-04-03T15:56:29;231.00;2252.80
55016;DHT22;40919;43.236;21.590;2023-04-03T15:58:55;231.00;2252.80
55016;DHT22;40919;43.236;21.590;2023-04-03T16:01:21;230.90;2252.80
55016;DHT22;40919;43.236;21.590;2023-04-03T16:03:47;230.80;2252.80
55016;DHT22;40919;43.236;21.590;2023-04-03T16:06:14;230.80;2252.80
55016;DHT22;40919;43.236;21.590;2023-04-03T16:08:41;230.80;2252.80
55016;DHT22;40919;43.236;21.590;2023-04-03T16:11:08;230.80;2252.80
55016;DHT22;40919;43.236;21.590;2023-04-03T16:13:34;230.80;2252.80
55016;DHT22;40919;43.236;21.590;2023-04-03T16:16:00;230.80;2252.80
55016;DHT22;40919;43.236;21.590;2023-04-03T16:18:28;230.70;2252.80
55016;DHT22;40919;43.236;21.590;2023-04-03T16:20:54;230.70;2252.80
55016;DHT22;40919;43.236;21.590;2023-04-03T16:23:20;230.60;2252.80
55016;DHT22;40919;43.236;21.590;2023-04-03T16:25:46;230.60;2252.80
55016;DHT22;40919;43.236;21.590;2023-04-03T16:28:13;230.60;2252.80
55016;DHT22;40919;43.236;21.590;2023-04-03T16:30:44;230.50;2252.80
55016;DHT22;40919;43.236;21.590;2023-04-03T16:33:10;230.40;2252.80
55016;DHT22;40919;43.236;21.590;2023-04-03T16:35:37;205.70;2252.80
55016;DHT22;40919;43.236;21.590;2023-04-03T16:38:03;205.70;2252.80
55016;DHT22;40919;43.236;21.590;2023-04-03T16:40:28;230.40;2252.80
55016;DHT22;40919;43.236;21.590;2023-04-03T16:42:54;230.40;2252.80